Time;durP1;ratioP1;P1;durP2;ratioP2;P2;SDS_P1;SDS_P2;PMS_P1;PMS_P2;Temp;Humidity;BMP_temperature;BMP_pressure;BME280_temperature;BME280_humidity;BME280_pressure;Samples;Min_cycle;Max_cycle;Signal;HPM_P1;HPM_P2
2023/05/26 00:00:43;;;;;;;15.50;5.20;;;;;;;;;;4978583;28;20244;-85
2023/05/26 00:03:09;;;;;;;15.37;5.40;;;;;;;;;;5002381;28;20222;-83
2023/05/26 00:05:39;;;;;;;13.77;4.77;;;;;;;;;;5005410;28;20222;-86
2023/05/26 00:08:09;;;;;;;13.63;4.53;;;;;;;;;;4996853;28;20221;-89
2023/05/26 00:10:37;;;;;;;16.80;5.33;;;;;;;;;;4974770;28;20225;-86
2023/05/26 00:13:06;;;;;;;14.20;5.07;;;;;;;;;;4998265;28;20240;-84
2023/05/26 00:15:31;;;;;;;21.43;5.60;;;;;;;;;;4990200;28;20287;-84
2023/05/26 00:18:01;;;;;;;17.30;5.60;;;;;;;;;;5001714;28;20222;-85
2023/05/26 00:20:29;;;;;;;12.47;5.30;;;;;;;;;;4988058;28;20731;-84
2023/05/26 00:22:57;;;;;;;13.57;5.13;;;;;;;;;;4994268;28;20220;-84
2023/05/26 00:25:22;;;;;;;14.60;5.43;;;;;;;;;;4966990;28;20307;-86
2023/05/26 00:27:49;;;;;;;18.20;5.20;;;;;;;;;;4997462;28;20221;-86
2023/05/26 00:30:19;;;;;;;15.90;4.93;;;;;;;;;;5012963;28;20221;-86
2023/05/26 00:32:47;;;;;;;16.93;5.20;;;;;;;;;;4996515;28;20209;-85
2023/05/26 00:35:12;;;;;;;19.10;5.70;;;;;;;;;;4995217;28;20249;-87
2023/05/26 00:37:38;;;;;;;15.13;4.90;;;;;;;;;;4980085;28;20272;-85
2023/05/26 00:40:07;;;;;;;15.53;4.93;;;;;;;;;;4976843;28;20230;-87
2023/05/26 00:42:34;;;;;;;22.03;5.40;;;;;;;;;;4963425;28;20232;-84
2023/05/26 00:45:00;;;;;;;16.17;5.57;;;;;;;;;;4993143;28;20217;-84
2023/05/26 00:47:26;;;;;;;17.33;5.50;;;;;;;;;;4994258;28;20245;-86
2023/05/26 00:49:54;;;;;;;16.17;5.37;;;;;;;;;;4980435;28;20215;-85
2023/05/26 00:52:20;;;;;;;19.53;5.30;;;;;;;;;;5001863;28;20249;-87
2023/05/26 00:54:45;;;;;;;16.27;5.37;;;;;;;;;;4992841;28;20218;-85
2023/05/26 00:57:11;;;;;;;19.20;5.60;;;;;;;;;;4986175;28;20209;-85
2023/05/26 00:59:39;;;;;;;16.07;5.37;;;;;;;;;;5001609;28;20232;-84
2023/05/26 01:02:05;;;;;;;15.70;5.23;;;;;;;;;;4997802;28;20225;-87
2023/05/26 01:04:31;;;;;;;18.97;5.40;;;;;;;;;;4994386;28;20233;-86
2023/05/26 01:06:56;;;;;;;17.90;5.57;;;;;;;;;;4987842;28;20691;-86
2023/05/26 01:09:22;;;;;;;21.00;6.30;;;;;;;;;;4991183;28;20463;-86
2023/05/26 01:12:01;;;;;;;17.23;5.17;;;;;;;;;;4976247;28;20297;-85
2023/05/26 01:14:45;;;;;;;15.70;5.40;;;;;;;;;;4972085;28;20234;-85
2023/05/26 01:17:28;;;;;;;20.90;5.50;;;;;;;;;;4989556;28;20260;-86
2023/05/26 01:19:57;;;;;;;13.73;5.50;;;;;;;;;;4978585;28;20218;-87
2023/05/26 01:22:41;;;;;;;17.23;5.50;;;;;;;;;;5006099;28;20237;-85
2023/05/26 01:25:37;;;;;;;14.63;5.10;;;;;;;;;;4990096;28;20571;-85
2023/05/26 01:28:21;;;;;;;18.77;5.33;;;;;;;;;;5004798;28;20213;-85
2023/05/26 01:30:47;;;;;;;19.20;5.93;;;;;;;;;;4982067;28;20229;-85
2023/05/26 01:33:13;;;;;;;16.67;5.30;;;;;;;;;;5008378;28;20225;-83
2023/05/26 01:35:40;;;;;;;21.97;6.07;;;;;;;;;;5010398;28;20193;-83
2023/05/26 01:38:06;;;;;;;16.47;5.47;;;;;;;;;;4999761;28;20343;-87
2023/05/26 01:40:31;;;;;;;19.03;5.60;;;;;;;;;;5006233;28;20226;-85
2023/05/26 01:43:18;;;;;;;15.23;5.13;;;;;;;;;;5009873;28;20215;-83
2023/05/26 01:45:59;;;;;;;18.63;5.57;;;;;;;;;;4997646;28;20254;-86
2023/05/26 01:48:27;;;;;;;16.33;4.67;;;;;;;;;;5016990;28;20248;-82
2023/05/26 01:50:57;;;;;;;18.07;5.57;;;;;;;;;;4992154;28;20223;-84
2023/05/26 01:53:26;;;;;;;17.00;5.80;;;;;;;;;;5007439;28;20245;-87
2023/05/26 01:55:56;;;;;;;16.63;5.53;;;;;;;;;;5030101;28;20270;-83
2023/05/26 01:58:25;;;;;;;14.23;5.10;;;;;;;;;;4991424;28;20245;-85
2023/05/26 02:00:53;;;;;;;14.83;4.90;;;;;;;;;;4979969;28;20213;-83
2023/05/26 02:03:21;;;;;;;14.53;5.40;;;;;;;;;;5025169;28;20229;-84
2023/05/26 02:05:46;;;;;;;16.63;5.20;;;;;;;;;;4991578;28;20209;-83
2023/05/26 02:08:15;;;;;;;13.67;5.13;;;;;;;;;;5012684;28;20229;-86
2023/05/26 02:10:43;;;;;;;13.87;5.47;;;;;;;;;;4970347;28;20230;-87
2023/05/26 02:13:09;;;;;;;17.53;5.17;;;;;;;;;;4994980;28;20770;-84
2023/05/26 02:15:34;;;;;;;14.57;5.47;;;;;;;;;;5008741;28;20217;-85
2023/05/26 02:18:00;;;;;;;22.27;5.53;;;;;;;;;;4992985;28;20213;-86
2023/05/26 02:20:25;;;;;;;16.20;5.33;;;;;;;;;;4980887;28;20237;-84
2023/05/26 02:22:51;;;;;;;16.17;5.50;;;;;;;;;;4983550;28;20237;-88
2023/05/26 02:25:17;;;;;;;16.10;5.10;;;;;;;;;;5006329;28;20990;-84
2023/05/26 02:27:45;;;;;;;14.97;4.93;;;;;;;;;;4967341;28;20214;-87
2023/05/26 02:30:11;;;;;;;15.73;5.23;;;;;;;;;;4990796;28;20221;-86
2023/05/26 02:32:36;;;;;;;17.43;4.97;;;;;;;;;;5011663;28;20287;-86
2023/05/26 02:35:06;;;;;;;17.27;5.20;;;;;;;;;;5008771;28;20614;-86
2023/05/26 02:37:32;;;;;;;15.77;5.17;;;;;;;;;;5007863;28;20273;-84
2023/05/26 02:39:58;;;;;;;12.77;4.87;;;;;;;;;;4973609;28;20737;-85
2023/05/26 02:42:24;;;;;;;16.00;4.77;;;;;;;;;;4989874;28;20242;-84
2023/05/26 02:44:50;;;;;;;13.40;4.93;;;;;;;;;;5010718;28;20233;-85
2023/05/26 02:47:20;;;;;;;12.40;4.73;;;;;;;;;;4993823;28;20240;-85
2023/05/26 02:49:46;;;;;;;15.43;4.93;;;;;;;;;;4997575;28;20297;-83
2023/05/26 02:52:11;;;;;;;17.23;4.77;;;;;;;;;;4982293;28;20305;-86
2023/05/26 02:54:37;;;;;;;14.03;4.77;;;;;;;;;;4962751;28;20225;-86
2023/05/26 02:57:02;;;;;;;22.60;5.87;;;;;;;;;;5010425;28;20240;-84
2023/05/26 02:59:28;;;;;;;14.83;5.23;;;;;;;;;;4990570;28;20253;-86
2023/05/26 03:01:53;;;;;;;15.53;5.40;;;;;;;;;;4936415;28;20688;-86
2023/05/26 03:04:19;;;;;;;16.30;5.23;;;;;;;;;;4972717;28;20229;-86
2023/05/26 03:06:49;;;;;;;13.90;4.40;;;;;;;;;;4991168;28;20293;-87
2023/05/26 03:09:19;;;;;;;16.10;4.67;;;;;;;;;;4988672;28;20217;-88
2023/05/26 03:11:47;;;;;;;10.70;4.63;;;;;;;;;;4995626;28;20620;-85
2023/05/26 03:14:13;;;;;;;16.50;5.33;;;;;;;;;;5004212;28;20229;-87
2023/05/26 03:16:40;;;;;;;17.83;4.50;;;;;;;;;;4994320;28;20757;-85
2023/05/26 03:19:10;;;;;;;12.73;4.23;;;;;;;;;;4990170;28;20249;-87
2023/05/26 03:21:38;;;;;;;15.30;4.83;;;;;;;;;;4957781;28;20289;-86
2023/05/26 03:24:05;;;;;;;15.50;5.23;;;;;;;;;;4961599;28;20230;-85
2023/05/26 03:26:35;;;;;;;15.40;4.53;;;;;;;;;;4996454;28;20268;-84
2023/05/26 03:29:01;;;;;;;15.50;4.57;;;;;;;;;;5012473;28;20218;-86
2023/05/26 03:31:31;;;;;;;15.30;4.47;;;;;;;;;;4976757;28;20610;-87
2023/05/26 03:33:59;;;;;;;14.07;4.93;;;;;;;;;;4989410;28;20229;-85
2023/05/26 03:36:28;;;;;;;11.73;4.53;;;;;;;;;;4984919;28;20222;-86
2023/05/26 03:39:01;;;;;;;13.73;4.80;;;;;;;;;;4996326;28;20224;-85
2023/05/26 03:41:32;;;;;;;15.27;4.47;;;;;;;;;;4962634;28;20269;-85
2023/05/26 03:43:58;;;;;;;14.43;4.53;;;;;;;;;;4986429;28;20232;-87
2023/05/26 03:46:25;;;;;;;16.07;4.70;;;;;;;;;;4965352;28;20218;-81
2023/05/26 03:48:50;;;;;;;16.20;4.87;;;;;;;;;;5007968;28;20224;-81
2023/05/26 03:51:16;;;;;;;16.70;4.53;;;;;;;;;;4970723;28;20217;-80
2023/05/26 03:53:45;;;;;;;13.97;4.23;;;;;;;;;;5003030;28;20370;-80
2023/05/26 03:56:13;;;;;;;16.77;4.87;;;;;;;;;;4999790;28;20226;-79
2023/05/26 03:58:38;;;;;;;18.10;4.87;;;;;;;;;;4968354;28;20226;-80
2023/05/26 04:01:10;;;;;;;17.07;5.13;;;;;;;;;;4981366;28;20229;-83
2023/05/26 04:03:37;;;;;;;17.00;4.80;;;;;;;;;;4972134;28;20695;-81
2023/05/26 04:06:02;;;;;;;14.10;4.63;;;;;;;;;;5002212;28;20232;-80
2023/05/26 04:08:28;;;;;;;17.80;5.37;;;;;;;;;;4998377;28;20234;-80
2023/05/26 04:10:54;;;;;;;18.50;5.30;;;;;;;;;;4953828;28;20222;-81
2023/05/26 04:13:19;;;;;;;12.23;4.63;;;;;;;;;;4979276;28;20237;-81
2023/05/26 04:15:48;;;;;;;15.17;4.40;;;;;;;;;;4948012;28;20237;-80
2023/05/26 04:18:13;;;;;;;15.13;4.37;;;;;;;;;;4965970;28;20225;-79
2023/05/26 04:20:39;;;;;;;17.30;5.03;;;;;;;;;;5004444;28;20232;-78
2023/05/26 04:23:06;;;;;;;14.30;4.93;;;;;;;;;;4986498;28;20237;-81
2023/05/26 04:25:35;;;;;;;15.87;5.10;;;;;;;;;;5004904;28;20346;-79
2023/05/26 04:28:09;;;;;;;15.40;4.60;;;;;;;;;;5003998;28;20209;-79
2023/05/26 04:30:45;;;;;;;12.50;4.70;;;;;;;;;;4994542;28;20223;-79
2023/05/26 04:33:15;;;;;;;13.10;4.20;;;;;;;;;;4986854;28;20214;-80
2023/05/26 04:36:08;;;;;;;13.80;4.50;;;;;;;;;;4971692;28;20772;-78
2023/05/26 04:38:37;;;;;;;15.57;5.17;;;;;;;;;;4984397;28;20233;-79
2023/05/26 04:41:07;;;;;;;15.50;4.70;;;;;;;;;;4959010;28;20222;-80
2023/05/26 04:43:35;;;;;;;13.83;5.20;;;;;;;;;;4985092;28;20246;-82
2023/05/26 04:46:02;;;;;;;15.67;5.37;;;;;;;;;;5009777;28;20216;-81
2023/05/26 04:48:28;;;;;;;20.13;5.17;;;;;;;;;;4997757;28;20602;-82
2023/05/26 04:50:56;;;;;;;16.77;5.53;;;;;;;;;;4990721;28;20609;-79
2023/05/26 04:53:22;;;;;;;12.60;4.93;;;;;;;;;;4997952;28;20224;-82
2023/05/26 04:55:47;;;;;;;16.33;5.07;;;;;;;;;;4970485;28;20801;-82
2023/05/26 04:58:17;;;;;;;16.07;4.50;;;;;;;;;;4992664;28;20275;-82
2023/05/26 05:00:44;;;;;;;15.17;5.00;;;;;;;;;;4998610;28;20732;-80
2023/05/26 05:03:34;;;;;;;12.33;4.40;;;;;;;;;;5005154;28;20914;-80
2023/05/26 05:06:04;;;;;;;16.80;4.87;;;;;;;;;;4996568;28;20244;-79
2023/05/26 05:08:30;;;;;;;17.53;4.73;;;;;;;;;;5002899;28;20224;-82
2023/05/26 05:10:59;;;;;;;15.77;5.30;;;;;;;;;;4976628;28;20221;-83
2023/05/26 05:13:27;;;;;;;16.53;5.00;;;;;;;;;;5001941;28;20226;-80
2023/05/26 05:15:55;;;;;;;12.70;4.80;;;;;;;;;;4991508;28;20228;-79
2023/05/26 05:18:21;;;;;;;13.90;4.37;;;;;;;;;;5005812;28;20226;-77
2023/05/26 05:20:50;;;;;;;16.27;5.10;;;;;;;;;;4997887;28;20229;-78
2023/05/26 05:23:15;;;;;;;15.20;4.83;;;;;;;;;;4983272;28;20230;-79
2023/05/26 05:25:44;;;;;;;14.93;5.03;;;;;;;;;;4995052;28;20720;-81
2023/05/26 05:28:10;;;;;;;12.57;4.67;;;;;;;;;;5007553;28;20222;-81
2023/05/26 05:30:40;;;;;;;16.87;5.07;;;;;;;;;;4989459;28;20218;-81
2023/05/26 05:33:05;;;;;;;14.03;5.37;;;;;;;;;;4990532;28;20225;-80
2023/05/26 05:35:34;;;;;;;14.40;4.57;;;;;;;;;;4972959;28;20284;-81
2023/05/26 05:38:01;;;;;;;15.97;5.10;;;;;;;;;;4977855;28;20217;-80
2023/05/26 05:40:29;;;;;;;15.97;4.77;;;;;;;;;;4976703;28;20240;-80
2023/05/26 05:42:55;;;;;;;13.30;4.83;;;;;;;;;;4990748;28;20229;-80
2023/05/26 05:45:21;;;;;;;12.63;4.80;;;;;;;;;;4987592;28;20226;-78
2023/05/26 05:48:05;;;;;;;14.70;4.93;;;;;;;;;;4991422;28;20254;-78
2023/05/26 05:50:32;;;;;;;16.80;4.87;;;;;;;;;;4961221;28;20248;-80
2023/05/26 05:53:00;;;;;;;13.87;4.77;;;;;;;;;;4994541;28;20308;-81
2023/05/26 05:55:26;;;;;;;15.53;5.30;;;;;;;;;;4995031;28;20307;-80
2023/05/26 05:57:56;;;;;;;13.13;4.63;;;;;;;;;;5008839;28;20293;-80
2023/05/26 06:00:22;;;;;;;11.63;5.00;;;;;;;;;;4956931;28;25597;-79
2023/05/26 06:02:49;;;;;;;10.77;4.63;;;;;;;;;;4932139;28;20250;-79
2023/05/26 06:05:14;;;;;;;12.57;5.00;;;;;;;;;;5019629;28;20221;-79
2023/05/26 06:07:40;;;;;;;12.80;4.80;;;;;;;;;;4986672;28;20226;-79
2023/05/26 06:10:07;;;;;;;14.83;4.60;;;;;;;;;;4991657;28;20213;-80
2023/05/26 06:12:35;;;;;;;13.57;5.07;;;;;;;;;;4991664;28;20221;-82
2023/05/26 06:15:01;;;;;;;14.30;4.40;;;;;;;;;;4985112;28;20239;-79
2023/05/26 06:17:27;;;;;;;13.63;4.33;;;;;;;;;;5008561;28;20385;-80
2023/05/26 06:19:53;;;;;;;15.90;4.80;;;;;;;;;;4993416;28;20230;-82
2023/05/26 06:22:18;;;;;;;16.10;4.97;;;;;;;;;;5010742;28;20299;-78
2023/05/26 06:24:53;;;;;;;14.90;4.60;;;;;;;;;;5011088;28;20228;-80
2023/05/26 06:27:22;;;;;;;11.03;4.20;;;;;;;;;;4977443;28;20220;-78
2023/05/26 06:30:10;;;;;;;14.23;4.63;;;;;;;;;;5013758;28;20226;-79
2023/05/26 06:32:39;;;;;;;13.33;4.37;;;;;;;;;;5013192;28;20367;-82
2023/05/26 06:35:05;;;;;;;12.10;4.30;;;;;;;;;;4979633;28;20229;-80
2023/05/26 06:37:53;;;;;;;15.90;4.40;;;;;;;;;;4997719;28;20225;-81
2023/05/26 06:40:19;;;;;;;14.23;4.30;;;;;;;;;;4993567;28;20233;-82
2023/05/26 06:42:47;;;;;;;14.03;4.13;;;;;;;;;;4993101;28;20244;-81
2023/05/26 06:45:13;;;;;;;12.83;4.30;;;;;;;;;;4967289;28;20328;-83
2023/05/26 06:47:39;;;;;;;15.73;4.30;;;;;;;;;;4977990;28;20221;-82
2023/05/26 06:50:09;;;;;;;12.20;4.37;;;;;;;;;;4997000;28;20213;-82
2023/05/26 06:52:36;;;;;;;12.97;4.40;;;;;;;;;;4944801;28;20245;-81
2023/05/26 06:55:03;;;;;;;14.57;4.50;;;;;;;;;;4991723;28;20971;-81
2023/05/26 06:57:28;;;;;;;9.07;3.73;;;;;;;;;;4995320;28;20225;-80
2023/05/26 06:59:54;;;;;;;11.77;4.13;;;;;;;;;;4999309;28;20545;-77
2023/05/26 07:02:19;;;;;;;41.87;12.60;;;;;;;;;;4977811;28;20225;-83
2023/05/26 07:04:48;;;;;;;12.40;4.57;;;;;;;;;;4985268;28;20308;-80
2023/05/26 07:07:14;;;;;;;10.80;3.67;;;;;;;;;;4991106;28;20276;-79
2023/05/26 07:09:41;;;;;;;9.83;3.40;;;;;;;;;;4997525;28;20674;-79
2023/05/26 07:12:11;;;;;;;11.90;3.77;;;;;;;;;;4992708;28;20217;-78
2023/05/26 07:14:42;;;;;;;12.93;3.93;;;;;;;;;;5003126;28;20221;-80
2023/05/26 07:17:10;;;;;;;11.67;4.23;;;;;;;;;;5004725;28;20221;-80
2023/05/26 07:19:37;;;;;;;10.03;3.63;;;;;;;;;;4975740;28;20271;-76
2023/05/26 07:22:03;;;;;;;7.20;3.33;;;;;;;;;;4981805;28;20209;-78
2023/05/26 07:24:33;;;;;;;11.10;3.73;;;;;;;;;;4995434;28;20244;-79
2023/05/26 07:26:59;;;;;;;10.47;3.60;;;;;;;;;;5018297;28;20757;-78
2023/05/26 07:29:25;;;;;;;9.93;4.20;;;;;;;;;;4968417;28;20230;-77
2023/05/26 07:31:50;;;;;;;13.53;4.27;;;;;;;;;;5011869;28;20221;-77
2023/05/26 07:34:16;;;;;;;11.67;3.80;;;;;;;;;;4983447;28;20229;-78
2023/05/26 07:36:44;;;;;;;10.37;3.90;;;;;;;;;;5018047;28;20221;-76
2023/05/26 07:39:09;;;;;;;8.90;3.70;;;;;;;;;;4998217;28;20221;-78
2023/05/26 07:41:35;;;;;;;8.53;3.43;;;;;;;;;;4993898;28;20235;-77
2023/05/26 07:44:01;;;;;;;10.20;3.43;;;;;;;;;;5001481;28;20384;-79
2023/05/26 07:46:26;;;;;;;11.80;4.13;;;;;;;;;;5000930;28;20233;-76
2023/05/26 07:48:53;;;;;;;8.03;3.57;;;;;;;;;;4990137;28;20221;-77
2023/05/26 07:51:19;;;;;;;11.50;4.20;;;;;;;;;;4992338;28;20312;-77
2023/05/26 07:53:44;;;;;;;8.10;3.60;;;;;;;;;;4992955;28;20528;-78
2023/05/26 07:56:10;;;;;;;8.40;3.47;;;;;;;;;;5005658;28;20232;-78
2023/05/26 07:58:39;;;;;;;10.60;3.27;;;;;;;;;;5013930;28;20225;-78
2023/05/26 08:01:06;;;;;;;10.20;3.43;;;;;;;;;;5019560;28;20233;-80
2023/05/26 08:03:35;;;;;;;10.63;4.20;;;;;;;;;;5007490;28;20453;-80
2023/05/26 08:06:06;;;;;;;8.53;3.00;;;;;;;;;;5012831;28;20232;-80
2023/05/26 08:08:36;;;;;;;8.40;3.57;;;;;;;;;;4973867;28;20237;-78
2023/05/26 08:11:01;;;;;;;9.33;3.60;;;;;;;;;;5008698;28;20336;-81
2023/05/26 08:13:29;;;;;;;9.13;3.30;;;;;;;;;;4997368;28;20236;-81
2023/05/26 08:15:55;;;;;;;8.67;3.50;;;;;;;;;;4999264;28;20222;-79
2023/05/26 08:18:20;;;;;;;9.77;3.40;;;;;;;;;;4994593;28;20221;-83
2023/05/26 08:20:46;;;;;;;11.40;3.77;;;;;;;;;;4997400;28;20225;-80
2023/05/26 08:23:13;;;;;;;8.70;3.40;;;;;;;;;;5002616;28;20214;-80
2023/05/26 08:25:42;;;;;;;12.50;3.42;;;;;;;;;;4979853;28;20248;-81
2023/05/26 08:28:10;;;;;;;8.52;3.53;;;;;;;;;;4990676;28;20222;-81
2023/05/26 08:30:36;;;;;;;8.37;3.17;;;;;;;;;;5011394;28;20364;-81
2023/05/26 08:33:01;;;;;;;6.82;3.15;;;;;;;;;;4998784;28;20292;-81
2023/05/26 08:35:28;;;;;;;7.97;3.67;;;;;;;;;;5016019;28;20253;-82
2023/05/26 08:37:55;;;;;;;8.95;3.63;;;;;;;;;;4992584;28;20226;-81
2023/05/26 08:40:21;;;;;;;8.45;3.80;;;;;;;;;;4993042;28;20232;-81
2023/05/26 08:42:47;;;;;;;11.68;3.47;;;;;;;;;;4968461;28;20280;-81
2023/05/26 08:45:12;;;;;;;29.77;5.63;;;;;;;;;;5016387;28;20216;-79
2023/05/26 08:47:42;;;;;;;11.15;3.80;;;;;;;;;;4976284;28;20248;-81
2023/05/26 08:50:33;;;;;;;8.13;3.35;;;;;;;;;;4994436;28;20228;-81
2023/05/26 08:52:59;;;;;;;9.23;3.97;;;;;;;;;;5029180;28;20647;-79
2023/05/26 08:55:26;;;;;;;10.25;4.13;;;;;;;;;;4991147;28;20238;-80
2023/05/26 08:57:51;;;;;;;10.27;3.78;;;;;;;;;;4992012;28;20583;-80
2023/05/26 09:00:20;;;;;;;8.90;3.05;;;;;;;;;;4993824;28;20226;-79
2023/05/26 09:02:47;;;;;;;10.93;6.10;;;;;;;;;;4977268;28;20226;-81
2023/05/26 09:05:15;;;;;;;8.13;3.60;;;;;;;;;;4990716;28;21025;-82
2023/05/26 09:07:40;;;;;;;9.65;3.67;;;;;;;;;;4985870;28;20229;-82
2023/05/26 09:10:31;;;;;;;11.95;3.58;;;;;;;;;;4993008;28;20230;-81
2023/05/26 09:13:06;;;;;;;7.32;3.30;;;;;;;;;;5007783;28;20230;-81
2023/05/26 09:15:32;;;;;;;8.40;3.50;;;;;;;;;;5013561;28;20224;-82
2023/05/26 09:18:02;;;;;;;10.00;3.72;;;;;;;;;;4992846;28;20233;-82
2023/05/26 09:20:31;;;;;;;8.52;4.07;;;;;;;;;;4951639;28;20241;-81
2023/05/26 09:22:59;;;;;;;9.10;3.17;;;;;;;;;;4989036;28;20218;-81
2023/05/26 09:25:29;;;;;;;7.45;3.03;;;;;;;;;;5003286;28;20221;-81
2023/05/26 09:27:59;;;;;;;8.95;3.25;;;;;;;;;;4993327;28;20218;-82
2023/05/26 09:30:28;;;;;;;7.85;2.92;;;;;;;;;;5006696;28;20241;-81
2023/05/26 09:32:53;;;;;;;11.15;3.55;;;;;;;;;;4987706;28;20685;-82
2023/05/26 09:35:25;;;;;;;5.85;3.00;;;;;;;;;;5025224;28;20312;-80
2023/05/26 09:37:50;;;;;;;5.80;3.05;;;;;;;;;;4999967;28;20265;-80
2023/05/26 09:40:18;;;;;;;11.10;3.47;;;;;;;;;;4981287;28;20230;-82
2023/05/26 09:42:53;;;;;;;8.55;3.47;;;;;;;;;;5001058;28;20245;-82
2023/05/26 09:45:18;;;;;;;7.88;3.13;;;;;;;;;;4985805;28;20237;-80
2023/05/26 09:47:44;;;;;;;11.07;3.58;;;;;;;;;;5004751;28;20229;-81
2023/05/26 09:50:10;;;;;;;11.02;3.45;;;;;;;;;;4976803;28;20630;-81
2023/05/26 09:52:36;;;;;;;10.20;3.10;;;;;;;;;;4991528;28;20240;-80
2023/05/26 09:55:02;;;;;;;8.35;3.33;;;;;;;;;;5008573;28;21084;-79
2023/05/26 09:57:28;;;;;;;8.35;3.20;;;;;;;;;;4990634;28;20232;-82
2023/05/26 09:59:54;;;;;;;8.82;3.10;;;;;;;;;;4993516;28;20288;-81
2023/05/26 10:02:20;;;;;;;9.80;3.40;;;;;;;;;;4992000;28;20666;-81
2023/05/26 10:04:47;;;;;;;9.13;3.08;;;;;;;;;;5003367;28;20249;-80
2023/05/26 10:07:13;;;;;;;7.57;3.60;;;;;;;;;;4959603;28;20229;-83
2023/05/26 10:09:39;;;;;;;9.30;3.53;;;;;;;;;;5012871;28;20224;-80
2023/05/26 10:12:06;;;;;;;8.63;3.30;;;;;;;;;;4991919;28;20237;-82
2023/05/26 10:14:31;;;;;;;7.05;3.05;;;;;;;;;;4979383;28;20245;-80
2023/05/26 10:16:57;;;;;;;7.30;3.28;;;;;;;;;;4985977;28;20213;-80
2023/05/26 10:19:23;;;;;;;10.98;3.92;;;;;;;;;;4993708;28;20244;-81
2023/05/26 10:21:52;;;;;;;11.63;3.40;;;;;;;;;;4994538;28;20226;-81
2023/05/26 10:24:28;;;;;;;7.95;3.58;;;;;;;;;;5006177;28;20960;-81
2023/05/26 10:27:26;;;;;;;12.55;4.22;;;;;;;;;;4995634;28;20296;-81
2023/05/26 10:30:03;;;;;;;7.35;2.92;;;;;;;;;;5020735;28;20228;-80
2023/05/26 10:32:51;;;;;;;9.05;3.75;;;;;;;;;;4989252;28;20220;-81
2023/05/26 10:35:32;;;;;;;9.30;3.47;;;;;;;;;;4984204;28;20276;-81
2023/05/26 10:38:11;;;;;;;6.30;3.35;;;;;;;;;;5008486;28;20221;-81
2023/05/26 10:40:44;;;;;;;8.55;3.40;;;;;;;;;;5013281;28;20698;-82
2023/05/26 10:43:23;;;;;;;9.23;3.40;;;;;;;;;;4991068;28;20265;-81
2023/05/26 10:46:02;;;;;;;9.07;3.30;;;;;;;;;;5004198;28;20282;-82
2023/05/26 10:48:41;;;;;;;7.03;3.10;;;;;;;;;;4964862;28;20237;-80
2023/05/26 10:51:08;;;;;;;5.90;3.10;;;;;;;;;;5005762;28;20210;-78
2023/05/26 10:53:56;;;;;;;4.60;2.72;;;;;;;;;;4993130;28;20269;-81
2023/05/26 10:56:43;;;;;;;10.25;3.30;;;;;;;;;;5008438;28;20690;-85
2023/05/26 10:59:22;;;;;;;10.77;3.22;;;;;;;;;;4993390;28;20252;-84
2023/05/26 11:01:56;;;;;;;6.80;2.88;;;;;;;;;;5003486;28;20209;-87
2023/05/26 11:04:24;;;;;;;10.85;3.80;;;;;;;;;;5024429;28;20722;-87
2023/05/26 11:06:59;;;;;;;6.03;2.95;;;;;;;;;;5012439;28;20218;-86
2023/05/26 11:09:31;;;;;;;8.20;3.33;;;;;;;;;;5021604;28;20758;-85
2023/05/26 11:12:01;;;;;;;8.52;3.80;;;;;;;;;;4994620;28;20237;-84
2023/05/26 11:14:36;;;;;;;9.85;3.13;;;;;;;;;;4997090;28;20229;-83
2023/05/26 11:17:05;;;;;;;9.32;3.20;;;;;;;;;;4995371;28;20217;-84
2023/05/26 11:19:35;;;;;;;12.40;3.97;;;;;;;;;;5006885;28;20241;-85
2023/05/26 11:22:06;;;;;;;8.02;3.08;;;;;;;;;;4987290;28;20268;-86
2023/05/26 11:24:32;;;;;;;9.65;3.45;;;;;;;;;;4998194;28;20218;-84
2023/05/26 11:27:06;;;;;;;6.43;3.05;;;;;;;;;;4998696;28;20232;-84
2023/05/26 11:29:31;;;;;;;8.43;3.05;;;;;;;;;;4991170;28;20219;-87
2023/05/26 11:31:57;;;;;;;8.35;3.20;;;;;;;;;;4980890;28;20617;-85
2023/05/26 11:34:25;;;;;;;5.70;3.05;;;;;;;;;;5007634;28;20261;-87
2023/05/26 11:36:53;;;;;;;7.18;3.05;;;;;;;;;;4956962;28;20217;-85
2023/05/26 11:39:21;;;;;;;5.60;3.13;;;;;;;;;;4961862;28;20721;-88
2023/05/26 11:41:47;;;;;;;8.85;3.10;;;;;;;;;;4988343;28;20686;-88
2023/05/26 11:44:15;;;;;;;6.90;3.20;;;;;;;;;;4973700;28;20299;-85
2023/05/26 11:46:44;;;;;;;7.72;3.30;;;;;;;;;;5010202;28;20299;-87
2023/05/26 11:49:17;;;;;;;6.93;3.50;;;;;;;;;;4984684;28;20741;-84
2023/05/26 11:51:47;;;;;;;6.68;3.05;;;;;;;;;;4994585;28;20289;-85
2023/05/26 11:54:18;;;;;;;6.32;2.72;;;;;;;;;;5001052;28;20228;-87
2023/05/26 11:56:47;;;;;;;8.23;3.25;;;;;;;;;;4984994;28;20290;-84
2023/05/26 11:59:21;;;;;;;7.60;3.15;;;;;;;;;;5013821;28;20222;-87
2023/05/26 12:01:47;;;;;;;7.15;3.42;;;;;;;;;;5001197;28;20225;-86
2023/05/26 12:04:13;;;;;;;7.82;3.35;;;;;;;;;;4959801;28;20240;-86
2023/05/26 12:06:42;;;;;;;5.93;3.22;;;;;;;;;;4996101;28;20629;-85
2023/05/26 12:09:12;;;;;;;7.03;3.17;;;;;;;;;;4999204;28;20220;-86
2023/05/26 12:11:38;;;;;;;7.75;3.25;;;;;;;;;;4984638;28;20309;-85
2023/05/26 12:14:05;;;;;;;7.38;3.20;;;;;;;;;;4994845;28;20287;-84
2023/05/26 12:16:35;;;;;;;6.43;3.00;;;;;;;;;;5002691;28;20232;-84
2023/05/26 12:19:10;;;;;;;7.28;3.35;;;;;;;;;;4977814;28;20205;-86
2023/05/26 12:21:44;;;;;;;6.20;3.10;;;;;;;;;;4996123;28;20604;-86
2023/05/26 12:24:10;;;;;;;9.05;3.42;;;;;;;;;;4975062;28;20213;-84
2023/05/26 12:26:38;;;;;;;7.30;3.47;;;;;;;;;;4980146;28;20303;-85
2023/05/26 12:29:13;;;;;;;5.80;3.20;;;;;;;;;;4988751;28;20221;-89
2023/05/26 12:31:40;;;;;;;5.63;3.08;;;;;;;;;;5011612;28;20232;-85
2023/05/26 12:34:06;;;;;;;5.07;3.15;;;;;;;;;;4991987;28;20337;-87
2023/05/26 12:36:33;;;;;;;6.05;3.17;;;;;;;;;;4989599;28;20234;-85
2023/05/26 12:38:58;;;;;;;7.20;3.10;;;;;;;;;;4997872;28;20228;-88
2023/05/26 12:41:24;;;;;;;7.20;3.28;;;;;;;;;;4985963;28;20221;-86
2023/05/26 12:43:52;;;;;;;6.32;2.90;;;;;;;;;;4998279;28;20213;-84
2023/05/26 12:46:17;;;;;;;7.43;3.45;;;;;;;;;;4997513;28;20233;-85
2023/05/26 12:48:45;;;;;;;5.20;3.00;;;;;;;;;;5000873;28;20254;-83
2023/05/26 12:51:13;;;;;;;7.63;3.20;;;;;;;;;;5004469;28;20210;-86
2023/05/26 12:53:39;;;;;;;5.55;3.20;;;;;;;;;;5011253;28;20230;-88
2023/05/26 17:10:05;;;;;;;6.13;3.30;;;;;;;;;;4990692;28;20244;-82
2023/05/26 17:12:33;;;;;;;6.05;3.55;;;;;;;;;;5028477;28;20213;-77
2023/05/26 17:14:58;;;;;;;8.15;3.67;;;;;;;;;;4995508;28;20229;-78
2023/05/26 17:17:24;;;;;;;6.38;3.50;;;;;;;;;;5004803;28;20229;-80
2023/05/26 17:19:51;;;;;;;8.07;3.10;;;;;;;;;;5009546;28;20226;-79
2023/05/26 17:22:17;;;;;;;7.30;3.65;;;;;;;;;;5007452;28;20356;-83
2023/05/26 17:24:45;;;;;;;6.95;3.25;;;;;;;;;;4993838;28;20714;-81
2023/05/26 17:27:26;;;;;;;5.50;3.13;;;;;;;;;;5008946;28;20221;-80
2023/05/26 17:29:53;;;;;;;7.95;3.35;;;;;;;;;;4991924;28;20221;-83
2023/05/26 17:32:21;;;;;;;6.68;2.90;;;;;;;;;;4990125;28;20221;-80
2023/05/26 17:34:47;;;;;;;6.68;3.10;;;;;;;;;;4988987;28;20224;-81
2023/05/26 17:37:17;;;;;;;6.22;3.63;;;;;;;;;;4991665;28;20700;-79
2023/05/26 17:39:43;;;;;;;6.00;3.00;;;;;;;;;;5014782;28;20290;-80
2023/05/26 17:42:09;;;;;;;6.25;3.13;;;;;;;;;;4983616;28;20226;-81
2023/05/26 17:44:37;;;;;;;6.10;3.25;;;;;;;;;;4992367;28;20225;-82
2023/05/26 17:47:04;;;;;;;7.07;3.50;;;;;;;;;;4991650;28;20337;-80
2023/05/26 17:49:30;;;;;;;7.53;3.28;;;;;;;;;;4972558;28;20222;-78
2023/05/26 17:51:55;;;;;;;5.22;3.03;;;;;;;;;;4972599;28;20261;-80
2023/05/26 17:54:28;;;;;;;9.80;3.60;;;;;;;;;;4984178;28;20221;-79
2023/05/26 17:56:55;;;;;;;8.32;3.90;;;;;;;;;;4979937;28;20237;-79
2023/05/26 17:59:23;;;;;;;7.28;3.67;;;;;;;;;;5006810;28;20694;-79
2023/05/26 18:01:48;;;;;;;8.60;4.95;;;;;;;;;;5004356;28;20347;-79
2023/05/26 18:04:16;;;;;;;6.35;3.65;;;;;;;;;;4987707;28;20233;-81
2023/05/26 18:06:47;;;;;;;6.55;3.53;;;;;;;;;;4997692;28;20902;-80
2023/05/26 18:09:16;;;;;;;7.63;3.65;;;;;;;;;;5006834;28;20301;-80
2023/05/26 18:11:41;;;;;;;8.95;3.80;;;;;;;;;;4991389;28;20225;-80
2023/05/26 18:14:10;;;;;;;10.07;3.63;;;;;;;;;;4962370;28;20217;-83
2023/05/26 18:16:35;;;;;;;7.72;3.80;;;;;;;;;;4992933;28;20228;-83
2023/05/26 18:19:03;;;;;;;9.65;3.85;;;;;;;;;;4991736;28;20253;-79
2023/05/26 18:21:29;;;;;;;10.98;3.97;;;;;;;;;;4969922;28;20222;-80
2023/05/26 18:23:54;;;;;;;8.07;3.20;;;;;;;;;;4968138;28;20232;-81
2023/05/26 18:26:21;;;;;;;7.32;3.63;;;;;;;;;;4988488;28;20283;-81
2023/05/26 18:28:47;;;;;;;12.57;3.95;;;;;;;;;;4987328;28;20230;-81
2023/05/26 18:31:13;;;;;;;6.25;3.35;;;;;;;;;;4971127;28;20234;-80
2023/05/26 18:33:38;;;;;;;9.80;3.67;;;;;;;;;;4991382;28;20248;-79
2023/05/26 18:36:04;;;;;;;7.60;3.70;;;;;;;;;;4985439;28;20242;-80
2023/05/26 18:38:30;;;;;;;6.25;3.65;;;;;;;;;;5007023;28;20663;-80
2023/05/26 18:40:55;;;;;;;7.68;3.60;;;;;;;;;;4990423;28;20233;-80
2023/05/26 18:43:23;;;;;;;6.03;3.20;;;;;;;;;;4975176;28;20224;-80
2023/05/26 18:45:49;;;;;;;7.53;3.42;;;;;;;;;;5006642;28;20225;-80
2023/05/26 18:48:15;;;;;;;8.27;3.80;;;;;;;;;;5006523;28;20695;-81
2023/05/26 18:50:43;;;;;;;6.47;3.65;;;;;;;;;;4975030;28;20222;-80
2023/05/26 18:53:09;;;;;;;7.32;3.67;;;;;;;;;;4984224;28;20217;-78
2023/05/26 18:55:34;;;;;;;7.47;3.70;;;;;;;;;;4993182;28;20213;-79
2023/05/26 18:58:05;;;;;;;7.47;4.10;;;;;;;;;;4989907;28;20221;-78